createdAt,value
2023-04-15T00:01:39.057Z,99020.00
2023-04-15T00:04:13.408Z,99018.20
2023-04-15T00:06:53.992Z,99010.20
2023-04-15T00:09:28.095Z,99010.00
2023-04-15T00:12:02.292Z,99007.60
2023-04-15T00:14:37.111Z,99005.00
2023-04-15T00:17:11.543Z,99006.60
2023-04-15T00:19:46.034Z,99011.80
2023-04-15T00:22:20.168Z,99007.60
2023-04-15T00:24:54.380Z,99005.40
2023-04-15T00:27:28.562Z,99007.80
2023-04-15T00:30:04.139Z,99009.80
2023-04-15T00:32:38.387Z,99011.20
2023-04-15T00:35:13.228Z,99013.00
2023-04-15T00:37:47.448Z,99002.40
2023-04-15T00:40:26.315Z,99002.80
2023-04-15T00:43:00.680Z,99007.20
2023-04-15T00:45:35.093Z,99005.80
2023-04-15T00:48:11.499Z,99011.60
2023-04-15T00:50:46.033Z,99010.00
2023-04-15T00:53:20.140Z,99011.60
2023-04-15T00:55:54.977Z,99011.00
2023-04-15T00:58:29.688Z,99007.20
2023-04-15T01:01:05.280Z,99017.20
2023-04-15T01:29:56.004Z,99015.20
2023-04-15T01:32:31.207Z,99018.40
2023-04-15T01:35:05.487Z,99010.20
2023-04-15T01:37:39.903Z,99014.80
2023-04-15T01:40:15.533Z,99010.20
2023-04-15T01:42:49.700Z,99008.80
2023-04-15T01:45:24.258Z,99009.20
2023-04-15T01:47:58.578Z,99011.20
2023-04-15T01:50:32.812Z,99006.80
2023-04-15T01:53:07.074Z,99012.40
2023-04-15T01:55:42.016Z,99016.60
2023-04-15T01:58:16.646Z,99016.20
2023-04-15T02:00:51.699Z,99023.40
2023-04-15T02:03:26.115Z,99018.40
2023-04-15T02:06:00.514Z,99021.60
2023-04-15T02:08:36.011Z,99031.80
2023-04-15T02:11:10.316Z,99026.60
2023-04-15T02:13:44.706Z,99026.80
2023-04-15T02:16:22.186Z,99025.60
2023-04-15T02:18:56.602Z,99034.40
2023-04-15T02:21:31.054Z,99029.00
2023-04-15T02:24:05.686Z,99033.60
2023-04-15T02:26:40.683Z,99034.80
2023-04-15T02:29:15.170Z,99041.20
2023-04-15T02:31:51.157Z,99042.60
2023-04-15T02:34:27.194Z,99032.40
2023-04-15T02:37:01.392Z,99040.60
2023-04-15T02:39:35.943Z,99035.40
2023-04-15T02:42:10.552Z,99036.40
2023-04-15T02:44:44.654Z,99048.00
2023-04-15T02:47:18.923Z,99054.40
2023-04-15T02:49:53.101Z,99052.20
2023-04-15T02:52:27.427Z,99049.20
2023-04-15T02:55:02.714Z,99047.40
2023-04-15T02:57:39.051Z,99049.60
2023-04-15T03:00:17.267Z,99047.80
2023-04-15T03:02:56.692Z,99054.40
2023-04-15T03:05:32.010Z,99055.00
2023-04-15T03:08:06.814Z,99064.20
2023-04-15T03:10:41.709Z,99073.40
2023-04-15T03:13:15.978Z,99075.20
2023-04-15T03:15:52.210Z,99077.60
2023-04-15T03:18:28.966Z,99090.00
2023-04-15T03:21:03.381Z,99095.80
2023-04-15T03:23:38.920Z,99091.80
2023-04-15T03:26:24.922Z,99089.00
2023-04-15T03:29:00.981Z,99101.60
2023-04-15T03:31:35.838Z,99102.20
2023-04-15T03:34:10.667Z,99106.20
2023-04-15T03:36:44.882Z,99112.00
2023-04-15T03:39:19.328Z,99121.20
2023-04-15T03:41:53.454Z,99117.40
2023-04-15T03:44:28.017Z,99126.80
2023-04-15T03:47:02.140Z,99134.80
2023-04-15T03:49:36.386Z,99145.40
2023-04-15T03:52:10.763Z,99151.80
2023-04-15T03:54:44.894Z,99150.00
2023-04-15T03:57:19.102Z,99153.40
2023-04-15T03:59:53.161Z,99158.80
2023-04-15T04:02:28.543Z,99165.40
2023-04-15T04:05:02.919Z,99170.40
2023-04-15T04:07:37.075Z,99171.60
2023-04-15T04:10:13.102Z,99160.60
2023-04-15T04:12:47.146Z,99164.80
2023-04-15T04:15:21.506Z,99163.80
2023-04-15T04:17:55.667Z,99175.80
2023-04-15T04:20:32.040Z,99181.40
2023-04-15T04:23:06.222Z,99187.00
2023-04-15T04:25:40.618Z,99189.20
2023-04-15T04:28:15.085Z,99183.60
2023-04-15T04:30:49.449Z,99185.40
2023-04-15T04:33:23.821Z,99197.20
2023-04-15T04:35:57.895Z,99197.40
2023-04-15T04:38:32.108Z,99199.00
2023-04-15T04:41:06.531Z,99202.20
2023-04-15T04:43:40.600Z,99198.60
2023-04-15T04:46:14.838Z,99208.80
2023-04-15T04:48:49.250Z,99217.00
2023-04-15T04:51:23.742Z,99216.00
2023-04-15T04:53:58.894Z,99216.20
2023-04-15T04:56:34.451Z,99211.40
2023-04-15T04:59:09.473Z,99208.60
2023-04-15T05:01:43.974Z,99215.00
2023-04-15T05:04:18.249Z,99218.80
2023-04-15T05:06:54.282Z,99220.00
2023-04-15T05:09:28.900Z,99216.40
2023-04-15T05:12:03.000Z,99213.00
2023-04-15T05:14:37.450Z,99210.60
2023-04-15T05:17:11.629Z,99214.00
2023-04-15T05:19:45.907Z,99215.20
2023-04-15T05:22:20.428Z,99220.60
2023-04-15T05:24:54.828Z,99224.40
2023-04-15T05:27:28.992Z,99226.40
2023-04-15T05:30:03.084Z,99222.40
2023-04-15T05:32:37.682Z,99233.60
2023-04-15T05:35:12.794Z,99241.80
2023-04-15T05:37:47.466Z,99238.20
2023-04-15T05:40:23.707Z,99242.40
2023-04-15T05:42:58.232Z,99246.80
2023-04-15T05:45:32.276Z,99249.00
2023-04-15T05:48:06.552Z,99249.80
2023-04-15T05:50:42.074Z,99261.20
2023-04-15T05:53:16.517Z,99266.20
2023-04-15T05:55:50.686Z,99266.80
2023-04-15T05:58:24.877Z,99272.20
2023-04-15T06:00:59.168Z,99279.40
2023-04-15T06:03:33.771Z,99275.00
2023-04-15T06:06:08.611Z,99278.60
2023-04-15T06:08:42.914Z,99277.80
2023-04-15T06:11:17.816Z,99275.40
2023-04-15T06:13:52.103Z,99277.80
2023-04-15T06:16:26.416Z,99277.00
2023-04-15T06:19:00.974Z,99283.20
2023-04-15T06:21:36.118Z,99280.00
2023-04-15T06:24:11.568Z,99274.60
2023-04-15T06:26:45.667Z,99276.60
2023-04-15T06:29:19.873Z,99278.20
2023-04-15T06:31:54.126Z,99282.00
2023-04-15T06:34:28.321Z,99287.40
2023-04-15T06:37:04.439Z,99289.80
2023-04-15T06:39:40.440Z,99285.80
2023-04-15T06:42:14.933Z,99282.60
2023-04-15T06:44:49.111Z,99289.20
2023-04-15T06:47:23.242Z,99289.40
2023-04-15T06:49:57.609Z,99291.40
2023-04-15T06:52:31.904Z,99291.80
2023-04-15T06:55:08.348Z,99289.40
2023-04-15T06:57:42.507Z,99294.40
2023-04-15T07:00:18.970Z,99295.20
2023-04-15T07:02:55.326Z,99308.60
2023-04-15T07:05:29.467Z,99313.00
2023-04-15T07:08:03.750Z,99315.40
2023-04-15T07:10:38.930Z,99317.00
2023-04-15T07:13:13.491Z,99319.40
2023-04-15T07:15:47.613Z,99323.40
2023-04-15T07:18:21.978Z,99323.60
2023-04-15T07:20:56.593Z,99329.00
2023-04-15T07:23:30.909Z,99334.40
2023-04-15T07:26:05.229Z,99338.00
2023-04-15T07:28:39.443Z,99339.20
2023-04-15T07:31:13.836Z,99342.40
2023-04-15T07:33:48.350Z,99333.00
2023-04-15T07:36:22.514Z,99327.40
2023-04-15T07:38:57.173Z,99328.60
2023-04-15T07:41:31.652Z,99327.20
2023-04-15T07:44:06.029Z,99327.20
2023-04-15T07:46:40.698Z,99331.40
2023-04-15T07:49:15.867Z,99336.00
2023-04-15T07:51:50.693Z,99333.60
2023-04-15T07:54:25.343Z,99326.60
2023-04-15T07:57:00.176Z,99335.40
2023-04-15T07:59:34.867Z,99338.00
2023-04-15T08:02:10.004Z,99338.20
2023-04-15T08:04:45.055Z,99346.60
2023-04-15T08:07:20.119Z,99348.00
2023-04-15T08:09:54.381Z,99348.60
2023-04-15T08:12:28.780Z,99347.20
2023-04-15T08:15:03.867Z,99350.80
2023-04-15T08:17:38.793Z,99352.80
2023-04-15T08:20:14.496Z,99353.80
2023-04-15T08:22:52.450Z,99358.00
2023-04-15T08:25:27.660Z,99357.00
2023-04-15T08:28:08.695Z,99356.80
2023-04-15T08:30:43.449Z,99362.00
2023-04-15T08:33:20.070Z,99363.00
2023-04-15T08:35:54.915Z,99367.40
2023-04-15T08:38:29.556Z,99376.60
2023-04-15T08:41:20.305Z,99373.20
2023-04-15T08:44:00.578Z,99380.80
2023-04-15T08:46:36.737Z,99372.60
2023-04-15T08:49:15.042Z,99373.40
2023-04-15T08:51:50.624Z,99374.60
2023-04-15T08:54:25.393Z,99375.20
2023-04-15T08:57:03.019Z,99372.00
2023-04-15T08:59:38.506Z,99362.60
2023-04-15T09:02:13.480Z,99366.40
2023-04-15T09:04:48.586Z,99368.40
2023-04-15T09:07:22.977Z,99371.40
2023-04-15T09:09:57.805Z,99369.00
2023-04-15T09:12:37.435Z,99367.40
2023-04-15T09:15:17.825Z,99370.40
2023-04-15T09:17:52.614Z,99370.40
2023-04-15T09:20:32.491Z,99371.20
2023-04-15T09:23:17.843Z,99370.00
2023-04-15T09:25:53.500Z,99369.20
2023-04-15T09:28:32.285Z,99365.40
2023-04-15T09:31:07.406Z,99370.80
2023-04-15T09:33:59.426Z,99371.00
2023-04-15T09:36:53.098Z,99378.60
2023-04-15T09:39:27.550Z,99379.60
2023-04-15T09:42:11.907Z,99383.20
2023-04-15T09:44:46.813Z,99370.20
2023-04-15T09:47:34.228Z,99374.00
2023-04-15T09:50:11.250Z,99376.20
2023-04-15T09:52:48.373Z,99378.40
2023-04-15T09:55:25.041Z,99381.00
2023-04-15T09:58:04.348Z,99384.80
2023-04-15T10:00:41.781Z,99384.20
2023-04-15T10:03:20.321Z,99388.00
2023-04-15T10:05:57.291Z,99381.80
2023-04-15T10:08:36.174Z,99379.00
2023-04-15T10:11:12.150Z,99387.40
2023-04-15T10:13:48.809Z,99391.00
2023-04-15T10:16:28.806Z,99394.40
2023-04-15T10:19:08.696Z,99389.40
2023-04-15T10:21:45.332Z,99391.60
2023-04-15T10:24:21.484Z,99390.20
2023-04-15T10:26:57.337Z,99393.40
2023-04-15T10:29:33.277Z,99383.00
2023-04-15T10:32:08.859Z,99386.00
2023-04-15T10:34:45.455Z,99394.80
2023-04-15T10:37:38.911Z,99392.80
2023-04-15T10:40:34.894Z,99393.40
2023-04-15T10:43:26.644Z,99398.20
2023-04-15T10:46:00.922Z,99398.80
2023-04-15T10:48:37.071Z,99401.80
2023-04-15T10:51:11.689Z,99392.40
2023-04-15T10:53:47.390Z,99392.40
2023-04-15T10:56:26.318Z,99400.40
2023-04-15T10:59:04.493Z,99410.80
2023-04-15T11:02:01.891Z,99410.20
2023-04-15T11:04:58.723Z,99410.80
2023-04-15T11:07:57.153Z,99404.20
2023-04-15T11:10:58.490Z,99407.60
2023-04-15T11:13:51.463Z,99406.80
2023-04-15T11:16:28.705Z,99407.00
2023-04-15T11:19:07.838Z,99411.00
2023-04-15T11:21:42.640Z,99409.80
2023-04-15T11:24:29.190Z,99419.40
2023-04-15T11:27:05.034Z,99425.20
2023-04-15T11:29:39.672Z,99427.00
2023-04-15T11:32:15.620Z,99424.40
2023-04-15T11:34:55.146Z,99434.40
2023-04-15T11:37:37.990Z,99430.00
2023-04-15T11:40:15.752Z,99433.80
2023-04-15T11:43:05.002Z,99427.80
2023-04-15T11:45:51.579Z,99429.20
2023-04-15T11:48:29.250Z,99426.80
2023-04-15T11:51:06.652Z,99427.20
2023-04-15T11:53:49.906Z,99432.40
2023-04-15T11:56:27.426Z,99440.40
2023-04-15T11:59:05.782Z,99447.80
2023-04-15T12:01:44.923Z,99455.00
2023-04-15T12:04:25.457Z,99452.00
2023-04-15T12:07:11.374Z,99458.40
2023-04-15T12:09:56.865Z,99461.20
2023-04-15T12:12:34.180Z,99459.00
2023-04-15T12:15:15.071Z,99464.40
2023-04-15T12:17:55.796Z,99462.20
2023-04-15T12:20:34.143Z,99462.20
2023-04-15T12:23:15.126Z,99466.00
2023-04-15T12:25:57.194Z,99474.40
2023-04-15T12:28:35.609Z,99474.40
2023-04-15T12:31:24.879Z,99470.60
2023-04-15T12:34:04.815Z,99474.60
2023-04-15T12:36:39.833Z,99474.40
2023-04-15T12:39:14.645Z,99474.40
2023-04-15T12:41:49.531Z,99472.60
2023-04-15T12:44:26.345Z,99477.00
2023-04-15T12:47:01.409Z,99470.80
2023-04-15T12:49:40.140Z,99465.20
2023-04-15T12:52:15.321Z,99469.40
2023-04-15T12:54:49.779Z,99474.20
2023-04-15T12:57:24.018Z,99475.00
2023-04-15T12:59:58.271Z,99472.80
2023-04-15T13:02:34.409Z,99464.60
2023-04-15T13:05:10.626Z,99465.40
2023-04-15T13:07:45.130Z,99468.40
2023-04-15T13:10:19.709Z,99470.60
2023-04-15T13:12:56.736Z,99469.60
2023-04-15T13:15:31.044Z,99471.40
2023-04-15T13:18:06.595Z,99474.80
2023-04-15T13:20:55.738Z,99481.00
2023-04-15T13:23:34.748Z,99475.80
2023-04-15T13:26:09.042Z,99480.80
2023-04-15T13:28:43.359Z,99479.00
2023-04-15T13:31:17.763Z,99472.60
2023-04-15T13:33:52.392Z,99464.40
2023-04-15T13:36:27.506Z,99462.60
2023-04-15T13:39:01.825Z,99465.40
2023-04-15T13:41:37.668Z,99456.80
2023-04-15T13:44:12.415Z,99455.40
2023-04-15T13:46:46.807Z,99450.00
2023-04-15T13:49:21.199Z,99446.80
2023-04-15T13:51:55.819Z,99446.00
2023-04-15T13:54:37.754Z,99451.60
2023-04-15T13:57:12.496Z,99456.40
2023-04-15T13:59:47.534Z,99455.00
2023-04-15T14:02:24.640Z,99457.80
2023-04-15T14:04:59.065Z,99462.00
2023-04-15T14:07:33.961Z,99469.80
2023-04-15T14:10:18.873Z,99471.00
2023-04-15T14:13:01.762Z,99468.80
2023-04-15T14:15:36.034Z,99470.20
2023-04-15T14:18:10.545Z,99467.20
2023-04-15T14:20:46.429Z,99467.20
2023-04-15T14:23:27.270Z,99471.00
2023-04-15T14:26:01.815Z,99474.00
2023-04-15T14:28:38.531Z,99484.20
2023-04-15T14:31:13.174Z,99486.60
2023-04-15T14:33:47.618Z,99483.00
2023-04-15T14:36:23.541Z,99483.40
2023-04-15T14:38:57.911Z,99482.40
2023-04-15T14:41:32.330Z,99484.60
2023-04-15T14:44:09.750Z,99481.80
2023-04-15T14:46:44.769Z,99482.60
2023-04-15T14:49:19.571Z,99491.60
2023-04-15T14:51:54.011Z,99488.00
2023-04-15T14:54:28.406Z,99485.40
2023-04-15T14:57:03.151Z,99484.80
2023-04-15T14:59:38.412Z,99488.80
2023-04-15T15:02:14.873Z,99490.80
2023-04-15T15:04:52.196Z,99496.40
2023-04-15T15:07:27.537Z,99499.80
2023-04-15T15:10:01.892Z,99503.00
2023-04-15T15:12:36.832Z,99508.40
2023-04-15T15:15:25.190Z,99510.20
2023-04-15T15:18:03.498Z,99517.80
2023-04-15T15:20:38.009Z,99523.40
2023-04-15T15:23:13.023Z,99528.20
2023-04-15T15:25:47.750Z,99523.80
2023-04-15T15:28:23.071Z,99518.60
2023-04-15T15:30:57.545Z,99524.80
2023-04-15T15:33:32.001Z,99522.80
2023-04-15T15:36:06.680Z,99529.40
2023-04-15T15:38:41.672Z,99532.60
2023-04-15T15:41:16.944Z,99528.20
2023-04-15T15:43:51.325Z,99528.20
2023-04-15T15:46:25.710Z,99530.00
2023-04-15T15:49:00.515Z,99537.60
2023-04-15T15:51:34.818Z,99542.00
2023-04-15T15:54:09.121Z,99545.60
2023-04-15T15:56:43.273Z,99554.40
2023-04-15T15:59:17.469Z,99562.40
2023-04-15T16:01:51.745Z,99565.80
2023-04-15T16:04:26.752Z,99572.60
2023-04-15T16:07:01.743Z,99573.00
2023-04-15T16:09:36.210Z,99576.60
2023-04-15T16:12:10.639Z,99580.80
2023-04-15T16:14:44.908Z,99584.00
2023-04-15T16:17:19.297Z,99591.60
2023-04-15T16:19:59.854Z,99594.00
2023-04-15T16:22:35.581Z,99599.60
2023-04-15T16:25:11.607Z,99600.40
2023-04-15T16:27:57.800Z,99607.60
2023-04-15T16:30:36.356Z,99618.40
2023-04-15T16:33:11.468Z,99618.00
2023-04-15T16:35:45.764Z,99625.60
2023-04-15T16:38:19.943Z,99630.20
2023-04-15T16:40:54.226Z,99630.20
2023-04-15T16:43:32.190Z,99635.20
2023-04-15T16:46:07.181Z,99629.80
2023-04-15T16:48:41.524Z,99640.40
2023-04-15T16:51:15.706Z,99637.20
2023-04-15T16:53:51.126Z,99634.40
2023-04-15T16:56:25.589Z,99641.00
2023-04-15T16:58:59.845Z,99646.00
2023-04-15T17:01:34.129Z,99647.80
2023-04-15T17:04:09.053Z,99652.80
2023-04-15T17:06:43.790Z,99662.00
2023-04-15T17:09:18.052Z,99665.40
2023-04-15T17:11:52.807Z,99672.60
2023-04-15T17:14:28.663Z,99679.80
2023-04-15T17:17:02.910Z,99689.40
2023-04-15T17:19:37.262Z,99690.80
2023-04-15T17:22:11.614Z,99696.60
2023-04-15T17:24:46.048Z,99698.00
2023-04-15T17:27:20.954Z,99705.80
2023-04-15T17:29:55.069Z,99710.60
2023-04-15T17:32:34.479Z,99708.00
2023-04-15T17:35:14.046Z,99722.40
2023-04-15T17:37:48.793Z,99719.20
2023-04-15T17:40:24.119Z,99725.20
2023-04-15T17:42:59.404Z,99727.20
2023-04-15T17:45:33.663Z,99729.20
2023-04-15T17:48:08.303Z,99741.40
2023-04-15T17:50:43.669Z,99748.00
2023-04-15T17:53:18.254Z,99754.80
2023-04-15T17:55:53.824Z,99766.60
2023-04-15T17:58:28.744Z,99773.80
2023-04-15T18:01:03.150Z,99779.80
2023-04-15T18:03:38.573Z,99787.00
2023-04-15T18:06:14.324Z,99789.60
2023-04-15T18:08:48.933Z,99789.80
2023-04-15T18:11:23.175Z,99791.20
2023-04-15T18:13:57.526Z,99798.60
2023-04-15T18:16:32.023Z,99801.20
2023-04-15T18:19:06.937Z,99801.80
2023-04-15T18:21:41.623Z,99803.00
2023-04-15T18:24:17.512Z,99814.00
2023-04-15T18:26:51.761Z,99824.60
2023-04-15T18:29:26.931Z,99824.00
2023-04-15T18:32:03.252Z,99829.00
2023-04-15T18:34:37.851Z,99827.40
2023-04-15T18:37:12.166Z,99833.00
2023-04-15T18:39:46.903Z,99832.40
2023-04-15T18:42:21.832Z,99836.80
2023-04-15T18:44:56.576Z,99845.60
2023-04-15T18:47:31.923Z,99848.40
2023-04-15T18:50:08.180Z,99847.60
2023-04-15T18:52:42.817Z,99847.20
2023-04-15T18:55:19.188Z,99853.00
2023-04-15T18:57:54.250Z,99855.40
2023-04-15T19:00:32.795Z,99858.80
2023-04-15T19:03:09.631Z,99860.40
2023-04-15T19:05:45.818Z,99860.60
2023-04-15T19:08:20.460Z,99862.60
2023-04-15T19:10:55.105Z,99869.00
2023-04-15T19:13:29.865Z,99875.00
2023-04-15T19:16:04.896Z,99873.60
2023-04-15T19:18:39.475Z,99878.00
2023-04-15T19:21:15.026Z,99885.20
2023-04-15T19:23:50.407Z,99882.40
2023-04-15T19:26:25.752Z,99889.60
2023-04-15T19:29:02.076Z,99897.20
2023-04-15T19:31:37.261Z,99901.60
2023-04-15T19:34:11.937Z,99907.40
2023-04-15T19:36:46.775Z,99915.80
2023-04-15T19:39:21.958Z,99918.60
2023-04-15T19:41:56.969Z,99914.80
2023-04-15T19:44:31.729Z,99913.80
2023-04-15T19:47:06.420Z,99919.60
2023-04-15T19:49:41.197Z,99920.00
2023-04-15T19:52:16.892Z,99923.80
2023-04-15T19:54:51.598Z,99919.20
2023-04-15T19:57:26.175Z,99920.20
2023-04-15T20:00:00.849Z,99918.00
2023-04-15T20:02:35.286Z,99919.80
2023-04-15T20:05:11.409Z,99916.80
2023-04-15T20:07:51.859Z,99922.40
2023-04-15T20:10:27.428Z,99925.20
2023-04-15T20:13:02.218Z,99928.20
2023-04-15T20:15:37.049Z,99934.40
2023-04-15T20:18:13.570Z,99938.60
2023-04-15T20:20:50.114Z,99937.20
2023-04-15T20:23:24.683Z,99932.00
2023-04-15T20:25:59.000Z,99936.20
2023-04-15T20:28:33.570Z,99935.20
2023-04-15T20:31:09.476Z,99938.60
2023-04-15T20:33:45.555Z,99938.20
2023-04-15T20:36:20.108Z,99942.80
2023-04-15T20:38:54.565Z,99934.60
2023-04-15T20:41:29.054Z,99943.00
2023-04-15T20:44:03.516Z,99941.40
2023-04-15T20:46:38.088Z,99945.40
2023-04-15T20:49:12.730Z,99942.20
2023-04-15T20:51:47.151Z,99946.00
2023-04-15T20:54:21.590Z,99947.80
2023-04-15T20:56:56.503Z,99952.80
2023-04-15T20:59:33.209Z,99956.40
2023-04-15T21:02:08.032Z,99957.40
2023-04-15T21:04:42.744Z,99959.80
2023-04-15T21:07:16.979Z,99965.00
2023-04-15T21:09:51.417Z,99968.00
2023-04-15T21:12:25.871Z,99968.80
2023-04-15T21:15:00.141Z,99969.20
2023-04-15T21:17:35.815Z,99965.60
2023-04-15T21:20:13.199Z,99965.00
2023-04-15T21:22:47.540Z,99971.20
2023-04-15T21:25:21.972Z,99970.20
2023-04-15T21:27:56.187Z,99970.40
2023-04-15T21:30:30.530Z,99972.40
2023-04-15T21:33:04.952Z,99972.00
2023-04-15T21:35:39.895Z,99972.00
2023-04-15T21:38:15.046Z,99977.40
2023-04-15T21:40:50.665Z,99980.40
2023-04-15T21:43:25.827Z,99976.20
2023-04-15T21:46:21.795Z,99985.60
2023-04-15T21:48:54.205Z,99990.80
2023-04-15T21:51:34.219Z,99993.80
2023-04-15T21:54:09.259Z,99992.40
2023-04-15T21:56:43.893Z,99992.20
2023-04-15T21:59:18.045Z,99998.60
2023-04-15T22:01:52.524Z,100001.00
2023-04-15T22:04:26.867Z,100008.80
2023-04-15T22:07:02.610Z,100004.40
2023-04-15T22:09:36.876Z,100010.80
2023-04-15T22:12:11.454Z,100014.60
2023-04-15T22:14:45.601Z,100014.00
2023-04-15T22:17:19.761Z,100021.60
2023-04-15T22:19:54.065Z,100027.20
2023-04-15T22:22:44.296Z,100026.00
2023-04-15T22:25:19.090Z,100026.20
2023-04-15T22:27:53.268Z,100031.00
2023-04-15T22:30:28.088Z,100031.40
2023-04-15T22:33:02.398Z,100031.40
2023-04-15T22:35:37.531Z,100032.40
2023-04-15T22:38:12.093Z,100032.40
2023-04-15T22:40:48.558Z,100037.00
2023-04-15T22:43:22.728Z,100037.80
2023-04-15T22:45:57.101Z,100038.20
2023-04-15T22:48:31.394Z,100039.60
2023-04-15T22:51:06.930Z,100048.40
2023-04-15T22:53:41.077Z,100052.40
2023-04-15T22:56:15.521Z,100052.60
2023-04-15T22:58:50.313Z,100054.20
2023-04-15T23:01:24.573Z,100062.80
2023-04-15T23:04:06.171Z,100059.20
2023-04-15T23:06:53.148Z,100060.60
2023-04-15T23:09:27.509Z,100066.60
2023-04-15T23:12:01.673Z,100069.60
2023-04-15T23:14:36.067Z,100072.60
2023-04-15T23:17:10.530Z,100072.80
2023-04-15T23:19:44.647Z,100078.60
2023-04-15T23:22:19.304Z,100082.80
2023-04-15T23:24:53.428Z,100085.80
2023-04-15T23:27:27.542Z,100089.40
2023-04-15T23:30:01.754Z,100084.00
2023-04-15T23:32:35.993Z,100082.40
2023-04-15T23:35:11.770Z,100087.80
2023-04-15T23:37:46.124Z,100081.00
2023-04-15T23:40:20.659Z,100086.00
2023-04-15T23:42:54.735Z,100088.20
2023-04-15T23:45:28.897Z,100085.80
2023-04-15T23:48:03.341Z,100087.40
2023-04-15T23:50:37.776Z,100091.20
2023-04-15T23:53:12.198Z,100094.20
2023-04-15T23:55:46.480Z,100092.00
2023-04-15T23:58:20.587Z,100090.20
